sensor_id;sensor_type;location;lat;lon;timestamp;P1;durP1;ratioP1;P2;durP2;ratioP2
23628;SDS011;11991;57.150;-2.134;2023-08-01T00:00:17;1.90;;;1.10;;
23628;SDS011;11991;57.150;-2.134;2023-08-01T00:02:45;1.58;;;1.00;;
23628;SDS011;11991;57.150;-2.134;2023-08-01T00:05:13;1.45;;;0.90;;
23628;SDS011;11991;57.150;-2.134;2023-08-01T00:07:40;1.95;;;1.02;;
23628;SDS011;11991;57.150;-2.134;2023-08-01T00:10:08;1.25;;;1.00;;
23628;SDS011;11991;57.150;-2.134;2023-08-01T00:12:35;1.00;;;0.70;;
23628;SDS011;11991;57.150;-2.134;2023-08-01T00:15:03;1.15;;;0.70;;
23628;SDS011;11991;57.150;-2.134;2023-08-01T00:17:30;1.27;;;0.90;;
23628;SDS011;11991;57.150;-2.134;2023-08-01T00:19:59;1.00;;;0.90;;
23628;SDS011;11991;57.150;-2.134;2023-08-01T00:22:26;1.20;;;0.90;;
23628;SDS011;11991;57.150;-2.134;2023-08-01T00:24:53;1.85;;;1.00;;
23628;SDS011;11991;57.150;-2.134;2023-08-01T00:27:20;3.28;;;1.40;;
23628;SDS011;11991;57.150;-2.134;2023-08-01T00:29:47;2.65;;;0.90;;
23628;SDS011;11991;57.150;-2.134;2023-08-01T00:32:14;1.75;;;1.15;;
23628;SDS011;11991;57.150;-2.134;2023-08-01T00:34:42;0.80;;;0.70;;
23628;SDS011;11991;57.150;-2.134;2023-08-01T00:37:10;2.80;;;1.10;;
23628;SDS011;11991;57.150;-2.134;2023-08-01T00:39:38;4.32;;;1.23;;
23628;SDS011;11991;57.150;-2.134;2023-08-01T00:42:06;4.95;;;1.88;;
23628;SDS011;11991;57.150;-2.134;2023-08-01T00:44:33;3.28;;;1.73;;
23628;SDS011;11991;57.150;-2.134;2023-08-01T00:47:00;6.68;;;2.00;;
23628;SDS011;11991;57.150;-2.134;2023-08-01T00:49:27;3.13;;;1.50;;
23628;SDS011;11991;57.150;-2.134;2023-08-01T00:51:56;5.30;;;2.22;;
23628;SDS011;11991;57.150;-2.134;2023-08-01T00:54:23;4.80;;;1.85;;
23628;SDS011;11991;57.150;-2.134;2023-08-01T00:56:52;2.53;;;1.52;;
23628;SDS011;11991;57.150;-2.134;2023-08-01T00:59:19;2.90;;;2.00;;
23628;SDS011;11991;57.150;-2.134;2023-08-01T01:01:46;4.65;;;1.80;;
23628;SDS011;11991;57.150;-2.134;2023-08-01T01:04:13;2.67;;;1.60;;
23628;SDS011;11991;57.150;-2.134;2023-08-01T01:06:41;4.30;;;2.25;;
23628;SDS011;11991;57.150;-2.134;2023-08-01T01:09:22;5.57;;;1.90;;
23628;SDS011;11991;57.150;-2.134;2023-08-01T01:11:49;3.42;;;1.45;;
23628;SDS011;11991;57.150;-2.134;2023-08-01T01:14:16;2.67;;;1.30;;
23628;SDS011;11991;57.150;-2.134;2023-08-01T01:16:44;2.33;;;1.45;;
23628;SDS011;11991;57.150;-2.134;2023-08-01T01:19:11;4.47;;;1.63;;
23628;SDS011;11991;57.150;-2.134;2023-08-01T01:21:39;1.73;;;1.20;;
23628;SDS011;11991;57.150;-2.134;2023-08-01T01:24:26;3.40;;;1.38;;
23628;SDS011;11991;57.150;-2.134;2023-08-01T01:26:54;3.95;;;1.45;;
23628;SDS011;11991;57.150;-2.134;2023-08-01T01:29:23;1.80;;;1.25;;
23628;SDS011;11991;57.150;-2.134;2023-08-01T01:31:50;3.95;;;1.48;;
23628;SDS011;11991;57.150;-2.134;2023-08-01T01:34:19;3.90;;;1.63;;
23628;SDS011;11991;57.150;-2.134;2023-08-01T01:36:47;3.25;;;1.70;;
23628;SDS011;11991;57.150;-2.134;2023-08-01T01:39:14;5.15;;;1.33;;
23628;SDS011;11991;57.150;-2.134;2023-08-01T01:41:41;4.90;;;2.10;;
23628;SDS011;11991;57.150;-2.134;2023-08-01T01:44:08;3.08;;;1.67;;
23628;SDS011;11991;57.150;-2.134;2023-08-01T01:46:36;5.43;;;1.75;;
23628;SDS011;11991;57.150;-2.134;2023-08-01T01:49:03;3.35;;;1.45;;
23628;SDS011;11991;57.150;-2.134;2023-08-01T01:51:30;4.32;;;1.60;;
23628;SDS011;11991;57.150;-2.134;2023-08-01T01:53:58;3.50;;;1.85;;
23628;SDS011;11991;57.150;-2.134;2023-08-01T01:56:25;3.35;;;1.67;;
23628;SDS011;11991;57.150;-2.134;2023-08-01T01:58:53;4.40;;;1.80;;
23628;SDS011;11991;57.150;-2.134;2023-08-01T02:01:20;5.70;;;2.35;;
23628;SDS011;11991;57.150;-2.134;2023-08-01T02:03:47;6.47;;;1.90;;
23628;SDS011;11991;57.150;-2.134;2023-08-01T02:06:15;4.13;;;1.70;;
23628;SDS011;11991;57.150;-2.134;2023-08-01T02:08:43;4.65;;;1.65;;
23628;SDS011;11991;57.150;-2.134;2023-08-01T02:11:10;4.95;;;1.77;;
23628;SDS011;11991;57.150;-2.134;2023-08-01T02:13:37;4.57;;;2.05;;
23628;SDS011;11991;57.150;-2.134;2023-08-01T02:16:05;5.88;;;2.20;;
23628;SDS011;11991;57.150;-2.134;2023-08-01T02:18:32;7.38;;;2.35;;
23628;SDS011;11991;57.150;-2.134;2023-08-01T02:20:59;5.50;;;2.13;;
23628;SDS011;11991;57.150;-2.134;2023-08-01T02:23:26;5.70;;;2.20;;
23628;SDS011;11991;57.150;-2.134;2023-08-01T02:25:53;9.20;;;2.67;;
23628;SDS011;11991;57.150;-2.134;2023-08-01T02:28:20;9.13;;;2.55;;
23628;SDS011;11991;57.150;-2.134;2023-08-01T02:30:47;7.53;;;2.10;;
23628;SDS011;11991;57.150;-2.134;2023-08-01T02:33:17;9.73;;;2.60;;
23628;SDS011;11991;57.150;-2.134;2023-08-01T02:35:45;6.07;;;2.33;;
23628;SDS011;11991;57.150;-2.134;2023-08-01T02:38:14;7.65;;;2.60;;
23628;SDS011;11991;57.150;-2.134;2023-08-01T02:40:41;7.53;;;2.20;;
23628;SDS011;11991;57.150;-2.134;2023-08-01T02:43:08;7.13;;;2.72;;
23628;SDS011;11991;57.150;-2.134;2023-08-01T02:45:35;9.00;;;2.47;;
23628;SDS011;11991;57.150;-2.134;2023-08-01T02:48:02;6.38;;;1.88;;
23628;SDS011;11991;57.150;-2.134;2023-08-01T02:50:30;6.32;;;2.63;;
23628;SDS011;11991;57.150;-2.134;2023-08-01T02:52:57;7.20;;;2.83;;
23628;SDS011;11991;57.150;-2.134;2023-08-01T02:55:24;4.90;;;2.08;;
23628;SDS011;11991;57.150;-2.134;2023-08-01T02:57:51;5.55;;;2.40;;
23628;SDS011;11991;57.150;-2.134;2023-08-01T03:00:18;10.55;;;2.50;;
23628;SDS011;11991;57.150;-2.134;2023-08-01T03:02:45;7.45;;;2.28;;
23628;SDS011;11991;57.150;-2.134;2023-08-01T03:05:13;4.53;;;1.70;;
23628;SDS011;11991;57.150;-2.134;2023-08-01T03:07:41;7.03;;;2.10;;
23628;SDS011;11991;57.150;-2.134;2023-08-01T03:10:08;10.02;;;2.53;;
23628;SDS011;11991;57.150;-2.134;2023-08-01T03:12:45;5.35;;;1.95;;
23628;SDS011;11991;57.150;-2.134;2023-08-01T03:15:12;6.00;;;2.10;;
23628;SDS011;11991;57.150;-2.134;2023-08-01T03:17:39;7.10;;;1.95;;
23628;SDS011;11991;57.150;-2.134;2023-08-01T03:20:07;6.47;;;2.65;;
23628;SDS011;11991;57.150;-2.134;2023-08-01T03:22:38;7.20;;;2.75;;
23628;SDS011;11991;57.150;-2.134;2023-08-01T03:25:06;5.80;;;2.22;;
23628;SDS011;11991;57.150;-2.134;2023-08-01T03:27:34;6.45;;;2.65;;
23628;SDS011;11991;57.150;-2.134;2023-08-01T03:30:02;5.93;;;2.10;;
23628;SDS011;11991;57.150;-2.134;2023-08-01T03:32:35;6.80;;;2.30;;
23628;SDS011;11991;57.150;-2.134;2023-08-01T03:35:04;5.32;;;2.10;;
23628;SDS011;11991;57.150;-2.134;2023-08-01T03:37:32;10.38;;;2.50;;
23628;SDS011;11991;57.150;-2.134;2023-08-01T03:39:59;4.05;;;2.15;;
23628;SDS011;11991;57.150;-2.134;2023-08-01T03:42:26;7.07;;;2.85;;
23628;SDS011;11991;57.150;-2.134;2023-08-01T03:44:53;8.00;;;2.28;;
23628;SDS011;11991;57.150;-2.134;2023-08-01T03:47:20;4.13;;;1.60;;
23628;SDS011;11991;57.150;-2.134;2023-08-01T03:49:48;8.30;;;2.53;;
23628;SDS011;11991;57.150;-2.134;2023-08-01T03:52:15;6.75;;;2.20;;
23628;SDS011;11991;57.150;-2.134;2023-08-01T03:54:42;6.30;;;2.50;;
23628;SDS011;11991;57.150;-2.134;2023-08-01T03:57:09;7.30;;;2.60;;
23628;SDS011;11991;57.150;-2.134;2023-08-01T03:59:37;9.05;;;2.88;;
23628;SDS011;11991;57.150;-2.134;2023-08-01T04:02:04;9.60;;;2.42;;
23628;SDS011;11991;57.150;-2.134;2023-08-01T04:04:31;3.28;;;1.88;;
23628;SDS011;11991;57.150;-2.134;2023-08-01T04:06:59;5.25;;;2.28;;
23628;SDS011;11991;57.150;-2.134;2023-08-01T04:09:26;6.85;;;2.22;;
23628;SDS011;11991;57.150;-2.134;2023-08-01T04:11:53;5.97;;;2.50;;
23628;SDS011;11991;57.150;-2.134;2023-08-01T04:14:20;7.85;;;3.22;;
23628;SDS011;11991;57.150;-2.134;2023-08-01T04:16:47;8.40;;;2.83;;
23628;SDS011;11991;57.150;-2.134;2023-08-01T04:19:15;5.53;;;2.10;;
23628;SDS011;11991;57.150;-2.134;2023-08-01T04:21:42;5.60;;;2.33;;
23628;SDS011;11991;57.150;-2.134;2023-08-01T04:24:09;10.60;;;2.88;;
23628;SDS011;11991;57.150;-2.134;2023-08-01T04:26:37;7.72;;;3.03;;
23628;SDS011;11991;57.150;-2.134;2023-08-01T04:29:04;6.10;;;2.30;;
23628;SDS011;11991;57.150;-2.134;2023-08-01T04:31:31;4.28;;;1.83;;
23628;SDS011;11991;57.150;-2.134;2023-08-01T04:33:59;5.47;;;2.10;;
23628;SDS011;11991;57.150;-2.134;2023-08-01T04:36:26;10.38;;;3.17;;
23628;SDS011;11991;57.150;-2.134;2023-08-01T04:38:53;6.28;;;2.15;;
23628;SDS011;11991;57.150;-2.134;2023-08-01T04:41:20;6.72;;;2.28;;
23628;SDS011;11991;57.150;-2.134;2023-08-01T04:43:47;6.38;;;2.67;;
23628;SDS011;11991;57.150;-2.134;2023-08-01T04:46:14;7.63;;;2.72;;
23628;SDS011;11991;57.150;-2.134;2023-08-01T04:48:41;8.13;;;2.63;;
23628;SDS011;11991;57.150;-2.134;2023-08-01T04:51:09;7.82;;;2.90;;
23628;SDS011;11991;57.150;-2.134;2023-08-01T04:53:36;7.43;;;2.35;;
23628;SDS011;11991;57.150;-2.134;2023-08-01T04:56:03;4.55;;;1.90;;
23628;SDS011;11991;57.150;-2.134;2023-08-01T04:58:30;5.18;;;2.35;;
23628;SDS011;11991;57.150;-2.134;2023-08-01T05:00:57;6.85;;;2.45;;
23628;SDS011;11991;57.150;-2.134;2023-08-01T05:03:24;7.88;;;2.60;;
23628;SDS011;11991;57.150;-2.134;2023-08-01T05:05:52;5.43;;;2.35;;
23628;SDS011;11991;57.150;-2.134;2023-08-01T05:08:19;6.80;;;2.53;;
23628;SDS011;11991;57.150;-2.134;2023-08-01T05:10:46;7.13;;;2.50;;
23628;SDS011;11991;57.150;-2.134;2023-08-01T05:13:13;9.02;;;3.58;;
23628;SDS011;11991;57.150;-2.134;2023-08-01T05:15:40;5.15;;;2.15;;
23628;SDS011;11991;57.150;-2.134;2023-08-01T05:18:10;7.57;;;2.83;;
23628;SDS011;11991;57.150;-2.134;2023-08-01T05:20:37;5.78;;;1.90;;
23628;SDS011;11991;57.150;-2.134;2023-08-01T05:23:04;6.55;;;2.47;;
23628;SDS011;11991;57.150;-2.134;2023-08-01T05:25:31;6.15;;;2.33;;
23628;SDS011;11991;57.150;-2.134;2023-08-01T05:27:58;5.28;;;1.90;;
23628;SDS011;11991;57.150;-2.134;2023-08-01T05:30:26;5.13;;;2.00;;
23628;SDS011;11991;57.150;-2.134;2023-08-01T05:32:53;6.53;;;2.40;;
23628;SDS011;11991;57.150;-2.134;2023-08-01T05:35:20;4.00;;;1.90;;
23628;SDS011;11991;57.150;-2.134;2023-08-01T05:37:48;4.13;;;1.92;;
23628;SDS011;11991;57.150;-2.134;2023-08-01T05:40:15;5.57;;;2.30;;
23628;SDS011;11991;57.150;-2.134;2023-08-01T05:42:42;6.28;;;2.40;;
23628;SDS011;11991;57.150;-2.134;2023-08-01T05:45:09;6.60;;;2.80;;
23628;SDS011;11991;57.150;-2.134;2023-08-01T05:47:38;4.28;;;1.58;;
23628;SDS011;11991;57.150;-2.134;2023-08-01T05:50:07;8.65;;;2.60;;
23628;SDS011;11991;57.150;-2.134;2023-08-01T05:52:34;9.65;;;3.40;;
23628;SDS011;11991;57.150;-2.134;2023-08-01T05:55:02;4.63;;;2.08;;
23628;SDS011;11991;57.150;-2.134;2023-08-01T05:57:30;4.68;;;2.25;;
23628;SDS011;11991;57.150;-2.134;2023-08-01T05:59:57;5.30;;;1.90;;
23628;SDS011;11991;57.150;-2.134;2023-08-01T06:02:24;8.68;;;2.83;;
23628;SDS011;11991;57.150;-2.134;2023-08-01T06:04:52;5.45;;;2.33;;
23628;SDS011;11991;57.150;-2.134;2023-08-01T06:07:19;8.45;;;2.65;;
23628;SDS011;11991;57.150;-2.134;2023-08-01T06:09:50;6.07;;;2.58;;
23628;SDS011;11991;57.150;-2.134;2023-08-01T06:12:20;6.38;;;2.42;;
23628;SDS011;11991;57.150;-2.134;2023-08-01T06:14:47;7.95;;;2.03;;
23628;SDS011;11991;57.150;-2.134;2023-08-01T06:17:14;9.13;;;3.03;;
23628;SDS011;11991;57.150;-2.134;2023-08-01T06:19:42;6.68;;;2.47;;
23628;SDS011;11991;57.150;-2.134;2023-08-01T06:22:09;10.45;;;2.50;;
23628;SDS011;11991;57.150;-2.134;2023-08-01T06:24:36;5.07;;;2.10;;
23628;SDS011;11991;57.150;-2.134;2023-08-01T06:27:03;8.75;;;2.70;;
23628;SDS011;11991;57.150;-2.134;2023-08-01T06:29:32;5.93;;;1.92;;
23628;SDS011;11991;57.150;-2.134;2023-08-01T06:31:59;5.07;;;1.73;;
23628;SDS011;11991;57.150;-2.134;2023-08-01T06:34:26;10.55;;;2.25;;
23628;SDS011;11991;57.150;-2.134;2023-08-01T06:36:53;5.10;;;2.30;;
23628;SDS011;11991;57.150;-2.134;2023-08-01T06:39:20;5.00;;;1.98;;
23628;SDS011;11991;57.150;-2.134;2023-08-01T06:41:48;6.18;;;1.90;;
23628;SDS011;11991;57.150;-2.134;2023-08-01T06:44:15;6.07;;;2.38;;
23628;SDS011;11991;57.150;-2.134;2023-08-01T06:46:42;6.30;;;2.40;;
23628;SDS011;11991;57.150;-2.134;2023-08-01T06:49:09;5.63;;;2.88;;
23628;SDS011;11991;57.150;-2.134;2023-08-01T06:51:36;3.47;;;1.98;;
23628;SDS011;11991;57.150;-2.134;2023-08-01T06:54:03;7.22;;;2.22;;
23628;SDS011;11991;57.150;-2.134;2023-08-01T06:56:31;3.42;;;2.13;;
23628;SDS011;11991;57.150;-2.134;2023-08-01T06:58:58;5.18;;;2.42;;
23628;SDS011;11991;57.150;-2.134;2023-08-01T07:01:25;4.45;;;1.77;;
23628;SDS011;11991;57.150;-2.134;2023-08-01T07:03:52;6.43;;;1.95;;
23628;SDS011;11991;57.150;-2.134;2023-08-01T07:06:19;3.13;;;1.75;;
23628;SDS011;11991;57.150;-2.134;2023-08-01T07:08:47;4.95;;;1.90;;
23628;SDS011;11991;57.150;-2.134;2023-08-01T07:11:14;2.42;;;1.50;;
23628;SDS011;11991;57.150;-2.134;2023-08-01T07:13:41;4.40;;;2.22;;
23628;SDS011;11991;57.150;-2.134;2023-08-01T07:16:08;4.38;;;1.77;;
23628;SDS011;11991;57.150;-2.134;2023-08-01T07:18:36;4.68;;;1.70;;
23628;SDS011;11991;57.150;-2.134;2023-08-01T07:21:03;5.07;;;2.30;;
23628;SDS011;11991;57.150;-2.134;2023-08-01T07:23:33;5.60;;;2.15;;
23628;SDS011;11991;57.150;-2.134;2023-08-01T07:26:02;4.65;;;1.88;;
23628;SDS011;11991;57.150;-2.134;2023-08-01T07:28:30;5.32;;;2.08;;
23628;SDS011;11991;57.150;-2.134;2023-08-01T07:30:58;5.82;;;2.03;;
23628;SDS011;11991;57.150;-2.134;2023-08-01T07:33:26;7.43;;;2.72;;
23628;SDS011;11991;57.150;-2.134;2023-08-01T07:35:53;5.38;;;2.50;;
23628;SDS011;11991;57.150;-2.134;2023-08-01T07:38:20;3.63;;;1.58;;
23628;SDS011;11991;57.150;-2.134;2023-08-01T07:40:47;2.72;;;1.60;;
23628;SDS011;11991;57.150;-2.134;2023-08-01T07:43:15;5.47;;;2.50;;
23628;SDS011;11991;57.150;-2.134;2023-08-01T07:45:42;3.80;;;1.92;;
23628;SDS011;11991;57.150;-2.134;2023-08-01T07:48:09;5.18;;;2.13;;
23628;SDS011;11991;57.150;-2.134;2023-08-01T07:50:36;6.25;;;1.77;;
23628;SDS011;11991;57.150;-2.134;2023-08-01T07:53:04;6.50;;;2.47;;
23628;SDS011;11991;57.150;-2.134;2023-08-01T07:55:33;5.40;;;2.38;;
23628;SDS011;11991;57.150;-2.134;2023-08-01T07:58:01;3.53;;;2.08;;
23628;SDS011;11991;57.150;-2.134;2023-08-01T08:00:28;4.88;;;2.13;;
23628;SDS011;11991;57.150;-2.134;2023-08-01T08:02:55;3.35;;;1.60;;
23628;SDS011;11991;57.150;-2.134;2023-08-01T08:05:22;2.75;;;1.20;;
23628;SDS011;11991;57.150;-2.134;2023-08-01T08:07:50;2.65;;;1.65;;
23628;SDS011;11991;57.150;-2.134;2023-08-01T08:10:18;3.50;;;1.50;;
23628;SDS011;11991;57.150;-2.134;2023-08-01T08:12:45;3.65;;;1.83;;
23628;SDS011;11991;57.150;-2.134;2023-08-01T08:15:12;4.32;;;2.05;;
23628;SDS011;11991;57.150;-2.134;2023-08-01T08:17:40;2.03;;;1.38;;
23628;SDS011;11991;57.150;-2.134;2023-08-01T08:20:07;3.67;;;1.48;;
23628;SDS011;11991;57.150;-2.134;2023-08-01T08:22:34;2.83;;;1.55;;
23628;SDS011;11991;57.150;-2.134;2023-08-01T08:25:01;5.82;;;2.13;;
23628;SDS011;11991;57.150;-2.134;2023-08-01T08:27:29;5.10;;;1.77;;
23628;SDS011;11991;57.150;-2.134;2023-08-01T08:29:56;3.80;;;1.45;;
23628;SDS011;11991;57.150;-2.134;2023-08-01T08:32:23;2.72;;;1.33;;
23628;SDS011;11991;57.150;-2.134;2023-08-01T08:34:50;3.75;;;1.73;;
23628;SDS011;11991;57.150;-2.134;2023-08-01T08:37:17;3.22;;;1.92;;
23628;SDS011;11991;57.150;-2.134;2023-08-01T08:39:44;4.82;;;1.50;;
23628;SDS011;11991;57.150;-2.134;2023-08-01T08:42:13;2.13;;;1.27;;
23628;SDS011;11991;57.150;-2.134;2023-08-01T08:44:42;2.40;;;1.23;;
23628;SDS011;11991;57.150;-2.134;2023-08-01T08:47:10;2.95;;;1.50;;
23628;SDS011;11991;57.150;-2.134;2023-08-01T08:49:39;2.58;;;1.20;;
23628;SDS011;11991;57.150;-2.134;2023-08-01T08:52:08;2.53;;;1.10;;
23628;SDS011;11991;57.150;-2.134;2023-08-01T08:54:36;3.10;;;1.20;;
23628;SDS011;11991;57.150;-2.134;2023-08-01T08:57:05;3.20;;;1.40;;
23628;SDS011;11991;57.150;-2.134;2023-08-01T08:59:33;2.90;;;1.48;;
23628;SDS011;11991;57.150;-2.134;2023-08-01T09:02:04;5.18;;;1.90;;
23628;SDS011;11991;57.150;-2.134;2023-08-01T09:04:31;3.72;;;1.88;;
23628;SDS011;11991;57.150;-2.134;2023-08-01T09:07:00;5.63;;;1.88;;
23628;SDS011;11991;57.150;-2.134;2023-08-01T09:09:30;3.22;;;1.80;;
23628;SDS011;11991;57.150;-2.134;2023-08-01T09:11:57;6.03;;;2.63;;
23628;SDS011;11991;57.150;-2.134;2023-08-01T09:14:25;3.63;;;2.22;;
23628;SDS011;11991;57.150;-2.134;2023-08-01T09:16:52;3.67;;;2.40;;
23628;SDS011;11991;57.150;-2.134;2023-08-01T09:19:23;1.88;;;1.77;;
23628;SDS011;11991;57.150;-2.134;2023-08-01T09:21:51;5.22;;;2.55;;
23628;SDS011;11991;57.150;-2.134;2023-08-01T09:24:19;3.20;;;1.83;;
23628;SDS011;11991;57.150;-2.134;2023-08-01T09:26:48;4.13;;;2.08;;
23628;SDS011;11991;57.150;-2.134;2023-08-01T09:29:16;4.88;;;2.80;;
23628;SDS011;11991;57.150;-2.134;2023-08-01T09:31:43;3.20;;;2.20;;
23628;SDS011;11991;57.150;-2.134;2023-08-01T09:34:21;2.47;;;1.58;;
23628;SDS011;11991;57.150;-2.134;2023-08-01T09:36:50;2.75;;;1.42;;
23628;SDS011;11991;57.150;-2.134;2023-08-01T09:39:18;3.72;;;1.40;;
23628;SDS011;11991;57.150;-2.134;2023-08-01T09:42:00;3.40;;;1.45;;
23628;SDS011;11991;57.150;-2.134;2023-08-01T09:44:28;2.67;;;1.20;;
23628;SDS011;11991;57.150;-2.134;2023-08-01T09:49:24;2.83;;;1.30;;
23628;SDS011;11991;57.150;-2.134;2023-08-01T09:51:51;1.33;;;1.10;;
23628;SDS011;11991;57.150;-2.134;2023-08-01T09:54:18;2.30;;;1.20;;
23628;SDS011;11991;57.150;-2.134;2023-08-01T09:56:48;1.20;;;1.00;;
23628;SDS011;11991;57.150;-2.134;2023-08-01T09:59:18;1.88;;;1.10;;
23628;SDS011;11991;57.150;-2.134;2023-08-01T10:01:47;0.98;;;0.80;;
23628;SDS011;11991;57.150;-2.134;2023-08-01T10:04:27;2.53;;;1.20;;
23628;SDS011;11991;57.150;-2.134;2023-08-01T10:07:05;1.05;;;0.82;;
23628;SDS011;11991;57.150;-2.134;2023-08-01T10:09:35;3.92;;;1.30;;
23628;SDS011;11991;57.150;-2.134;2023-08-01T10:12:03;2.05;;;1.50;;
23628;SDS011;11991;57.150;-2.134;2023-08-01T10:14:32;2.58;;;1.00;;
23628;SDS011;11991;57.150;-2.134;2023-08-01T10:17:00;3.05;;;1.25;;
23628;SDS011;11991;57.150;-2.134;2023-08-01T10:19:30;2.08;;;0.95;;
23628;SDS011;11991;57.150;-2.134;2023-08-01T10:21:59;1.58;;;1.15;;
23628;SDS011;11991;57.150;-2.134;2023-08-01T10:24:27;2.47;;;1.10;;
23628;SDS011;11991;57.150;-2.134;2023-08-01T10:26:55;1.65;;;1.02;;
23628;SDS011;11991;57.150;-2.134;2023-08-01T10:29:34;1.70;;;1.10;;
23628;SDS011;11991;57.150;-2.134;2023-08-01T10:32:03;1.13;;;0.75;;
23628;SDS011;11991;57.150;-2.134;2023-08-01T10:34:33;2.03;;;0.98;;
23628;SDS011;11991;57.150;-2.134;2023-08-01T10:37:02;2.40;;;1.30;;
23628;SDS011;11991;57.150;-2.134;2023-08-01T10:39:30;2.50;;;1.40;;
23628;SDS011;11991;57.150;-2.134;2023-08-01T10:42:01;1.50;;;1.15;;
23628;SDS011;11991;57.150;-2.134;2023-08-01T10:44:32;1.35;;;0.88;;
23628;SDS011;11991;57.150;-2.134;2023-08-01T10:47:01;4.40;;;1.83;;
23628;SDS011;11991;57.150;-2.134;2023-08-01T10:52:01;2.55;;;1.08;;
23628;SDS011;11991;57.150;-2.134;2023-08-01T10:54:29;1.73;;;1.02;;
23628;SDS011;11991;57.150;-2.134;2023-08-01T10:56:58;1.70;;;1.02;;
23628;SDS011;11991;57.150;-2.134;2023-08-01T10:59:26;1.58;;;0.95;;
23628;SDS011;11991;57.150;-2.134;2023-08-01T11:01:57;1.40;;;1.00;;
23628;SDS011;11991;57.150;-2.134;2023-08-01T11:04:25;1.73;;;0.90;;
23628;SDS011;11991;57.150;-2.134;2023-08-01T11:06:53;1.90;;;1.02;;
23628;SDS011;11991;57.150;-2.134;2023-08-01T11:09:25;1.02;;;0.80;;
23628;SDS011;11991;57.150;-2.134;2023-08-01T11:11:57;0.95;;;0.70;;
23628;SDS011;11991;57.150;-2.134;2023-08-01T11:14:25;0.90;;;0.80;;
23628;SDS011;11991;57.150;-2.134;2023-08-01T11:16:54;1.17;;;0.95;;
23628;SDS011;11991;57.150;-2.134;2023-08-01T11:19:24;2.08;;;1.00;;
23628;SDS011;11991;57.150;-2.134;2023-08-01T11:21:55;0.82;;;0.80;;
23628;SDS011;11991;57.150;-2.134;2023-08-01T11:24:24;1.42;;;0.90;;
23628;SDS011;11991;57.150;-2.134;2023-08-01T11:26:53;1.48;;;1.02;;
23628;SDS011;11991;57.150;-2.134;2023-08-01T11:29:21;1.10;;;0.80;;
23628;SDS011;11991;57.150;-2.134;2023-08-01T11:31:58;1.20;;;1.00;;
23628;SDS011;11991;57.150;-2.134;2023-08-01T11:34:26;1.48;;;0.90;;
23628;SDS011;11991;57.150;-2.134;2023-08-01T11:36:53;2.58;;;1.40;;
23628;SDS011;11991;57.150;-2.134;2023-08-01T11:39:21;1.65;;;1.00;;
23628;SDS011;11991;57.150;-2.134;2023-08-01T11:41:49;2.78;;;1.00;;
23628;SDS011;11991;57.150;-2.134;2023-08-01T11:44:16;0.98;;;0.90;;
23628;SDS011;11991;57.150;-2.134;2023-08-01T11:46:43;0.95;;;0.73;;
23628;SDS011;11991;57.150;-2.134;2023-08-01T11:49:13;1.13;;;0.98;;
23628;SDS011;11991;57.150;-2.134;2023-08-01T11:51:41;1.13;;;0.90;;
23628;SDS011;11991;57.150;-2.134;2023-08-01T11:54:10;1.33;;;0.90;;
23628;SDS011;11991;57.150;-2.134;2023-08-01T11:56:40;1.42;;;0.90;;
23628;SDS011;11991;57.150;-2.134;2023-08-01T11:59:10;1.20;;;1.00;;
23628;SDS011;11991;57.150;-2.134;2023-08-01T12:01:39;1.58;;;1.30;;
23628;SDS011;11991;57.150;-2.134;2023-08-01T12:04:07;1.60;;;1.20;;
23628;SDS011;11991;57.150;-2.134;2023-08-01T12:06:35;1.63;;;1.17;;
23628;SDS011;11991;57.150;-2.134;2023-08-01T12:09:14;1.00;;;0.90;;
23628;SDS011;11991;57.150;-2.134;2023-08-01T12:11:41;1.48;;;1.17;;
23628;SDS011;11991;57.150;-2.134;2023-08-01T12:14:09;2.38;;;1.00;;
23628;SDS011;11991;57.150;-2.134;2023-08-01T12:16:42;5.60;;;1.55;;
23628;SDS011;11991;57.150;-2.134;2023-08-01T12:19:18;1.58;;;1.00;;
23628;SDS011;11991;57.150;-2.134;2023-08-01T12:21:47;2.47;;;1.10;;
23628;SDS011;11991;57.150;-2.134;2023-08-01T12:24:15;1.35;;;1.05;;
23628;SDS011;11991;57.150;-2.134;2023-08-01T12:26:42;0.75;;;0.75;;
23628;SDS011;11991;57.150;-2.134;2023-08-01T12:29:10;1.83;;;1.20;;
23628;SDS011;11991;57.150;-2.134;2023-08-01T12:31:38;1.83;;;0.95;;
23628;SDS011;11991;57.150;-2.134;2023-08-01T12:34:05;1.85;;;1.00;;
23628;SDS011;11991;57.150;-2.134;2023-08-01T12:36:33;1.38;;;0.80;;
23628;SDS011;11991;57.150;-2.134;2023-08-01T12:39:03;1.33;;;0.90;;
23628;SDS011;11991;57.150;-2.134;2023-08-01T12:41:31;0.70;;;0.70;;
23628;SDS011;11991;57.150;-2.134;2023-08-01T12:43:58;1.13;;;1.02;;
23628;SDS011;11991;57.150;-2.134;2023-08-01T12:46:26;1.50;;;0.90;;
23628;SDS011;11991;57.150;-2.134;2023-08-01T12:48:53;0.60;;;0.60;;
23628;SDS011;11991;57.150;-2.134;2023-08-01T12:51:20;1.05;;;0.95;;
23628;SDS011;11991;57.150;-2.134;2023-08-01T12:53:47;1.25;;;0.98;;
23628;SDS011;11991;57.150;-2.134;2023-08-01T12:56:15;0.80;;;0.70;;
23628;SDS011;11991;57.150;-2.134;2023-08-01T12:58:42;1.52;;;0.70;;
23628;SDS011;11991;57.150;-2.134;2023-08-01T13:01:09;1.70;;;0.85;;
23628;SDS011;11991;57.150;-2.134;2023-08-01T13:03:36;1.13;;;0.95;;
23628;SDS011;11991;57.150;-2.134;2023-08-01T13:06:04;0.93;;;0.90;;
23628;SDS011;11991;57.150;-2.134;2023-08-01T13:08:31;1.27;;;1.00;;
23628;SDS011;11991;57.150;-2.134;2023-08-01T13:10:58;2.30;;;1.33;;
23628;SDS011;11991;57.150;-2.134;2023-08-01T13:13:26;0.82;;;0.82;;
23628;SDS011;11991;57.150;-2.134;2023-08-01T13:15:56;1.45;;;0.93;;
23628;SDS011;11991;57.150;-2.134;2023-08-01T13:18:24;1.60;;;1.00;;
23628;SDS011;11991;57.150;-2.134;2023-08-01T13:20:51;1.38;;;0.80;;
23628;SDS011;11991;57.150;-2.134;2023-08-01T13:23:18;2.20;;;0.95;;
23628;SDS011;11991;57.150;-2.134;2023-08-01T13:25:45;0.73;;;0.73;;
23628;SDS011;11991;57.150;-2.134;2023-08-01T13:28:14;1.15;;;0.80;;
23628;SDS011;11991;57.150;-2.134;2023-08-01T13:30:41;0.75;;;0.65;;
23628;SDS011;11991;57.150;-2.134;2023-08-01T13:33:08;1.10;;;0.80;;
23628;SDS011;11991;57.150;-2.134;2023-08-01T13:35:35;1.88;;;0.90;;
23628;SDS011;11991;57.150;-2.134;2023-08-01T13:38:02;1.48;;;1.00;;
23628;SDS011;11991;57.150;-2.134;2023-08-01T13:40:31;1.48;;;0.98;;
23628;SDS011;11991;57.150;-2.134;2023-08-01T13:42:58;1.10;;;0.88;;
23628;SDS011;11991;57.150;-2.134;2023-08-01T13:45:25;0.80;;;0.65;;
23628;SDS011;11991;57.150;-2.134;2023-08-01T13:47:55;0.70;;;0.70;;
23628;SDS011;11991;57.150;-2.134;2023-08-01T13:50:22;1.77;;;1.13;;
23628;SDS011;11991;57.150;-2.134;2023-08-01T13:52:50;3.20;;;1.00;;
23628;SDS011;11991;57.150;-2.134;2023-08-01T13:55:17;0.85;;;0.85;;
23628;SDS011;11991;57.150;-2.134;2023-08-01T13:57:45;1.42;;;0.90;;
23628;SDS011;11991;57.150;-2.134;2023-08-01T14:00:12;1.63;;;0.95;;
23628;SDS011;11991;57.150;-2.134;2023-08-01T14:02:41;1.17;;;0.82;;
23628;SDS011;11991;57.150;-2.134;2023-08-01T14:05:08;2.00;;;0.88;;
23628;SDS011;11991;57.150;-2.134;2023-08-01T14:07:36;0.90;;;0.80;;
23628;SDS011;11991;57.150;-2.134;2023-08-01T14:10:09;1.00;;;0.80;;
23628;SDS011;11991;57.150;-2.134;2023-08-01T14:12:36;1.58;;;0.90;;
23628;SDS011;11991;57.150;-2.134;2023-08-01T14:15:04;1.77;;;1.00;;
23628;SDS011;11991;57.150;-2.134;2023-08-01T14:17:31;1.67;;;1.00;;
23628;SDS011;11991;57.150;-2.134;2023-08-01T14:19:58;1.35;;;1.00;;
23628;SDS011;11991;57.150;-2.134;2023-08-01T14:22:26;0.80;;;0.80;;
23628;SDS011;11991;57.150;-2.134;2023-08-01T14:24:53;1.20;;;1.00;;
23628;SDS011;11991;57.150;-2.134;2023-08-01T14:27:20;1.88;;;1.17;;
23628;SDS011;11991;57.150;-2.134;2023-08-01T14:29:47;0.80;;;0.68;;
23628;SDS011;11991;57.150;-2.134;2023-08-01T14:32:17;1.30;;;1.00;;
23628;SDS011;11991;57.150;-2.134;2023-08-01T14:34:45;1.80;;;1.10;;
23628;SDS011;11991;57.150;-2.134;2023-08-01T14:37:12;1.60;;;1.08;;
23628;SDS011;11991;57.150;-2.134;2023-08-01T14:39:39;1.30;;;1.17;;
23628;SDS011;11991;57.150;-2.134;2023-08-01T14:42:06;1.45;;;1.00;;